Time;durP1;ratioP1;P1;durP2;ratioP2;P2;SDS_P1;SDS_P2;PMS_P1;PMS_P2;Temp;Humidity;BMP_temperature;BMP_pressure;BME280_temperature;BME280_humidity;BME280_pressure;Samples;Min_cycle;Max_cycle;Signal;HPM_P1;HPM_P2
2022/03/07 00:01:11;;;;;;;30.98;19.63;;;;;;;;;;4896279;29;20173;-70
2022/03/07 00:03:37;;;;;;;35.88;19.88;;;;;;;;;;4895483;29;20036;-70
2022/03/07 00:06:04;;;;;;;54.17;22.45;;;;;;;;;;4895420;29;20040;-70
2022/03/07 00:08:30;;;;;;;40.65;21.08;;;;;;;;;;4896049;29;20033;-72
2022/03/07 00:10:56;;;;;;;29.75;18.58;;;;;;;;;;4896083;29;20040;-74
2022/03/07 00:13:22;;;;;;;29.55;18.63;;;;;;;;;;4895192;29;20028;-71
2022/03/07 00:15:48;;;;;;;37.10;18.75;;;;;;;;;;4896320;29;20043;-69
2022/03/07 00:18:13;;;;;;;43.88;20.40;;;;;;;;;;4898662;29;20475;-73
2022/03/07 00:20:39;;;;;;;33.10;20.02;;;;;;;;;;4899420;29;20052;-75
2022/03/07 00:23:05;;;;;;;46.50;21.40;;;;;;;;;;4897879;29;20120;-72
2022/03/07 00:25:31;;;;;;;50.38;22.80;;;;;;;;;;4899308;29;20419;-73
2022/03/07 00:27:57;;;;;;;40.40;23.17;;;;;;;;;;4899225;29;20111;-72
2022/03/07 00:30:23;;;;;;;35.22;21.23;;;;;;;;;;4898188;29;20036;-70
2022/03/07 00:32:53;;;;;;;32.97;20.35;;;;;;;;;;4899493;29;20024;-73
2022/03/07 00:35:19;;;;;;;31.88;19.23;;;;;;;;;;4899515;29;20068;-72
2022/03/07 00:37:46;;;;;;;30.83;19.77;;;;;;;;;;4899313;29;20035;-68
2022/03/07 00:40:12;;;;;;;29.65;18.42;;;;;;;;;;4897959;29;20036;-69
2022/03/07 00:42:38;;;;;;;30.40;16.90;;;;;;;;;;4897870;29;20040;-68
2022/03/07 00:45:08;;;;;;;27.00;16.15;;;;;;;;;;4899096;29;20083;-68
2022/03/07 00:47:34;;;;;;;24.30;14.95;;;;;;;;;;4898778;29;20063;-70
2022/03/07 00:50:02;;;;;;;21.17;13.73;;;;;;;;;;4898817;29;20375;-68
2022/03/07 00:52:28;;;;;;;22.85;14.52;;;;;;;;;;4897913;29;20346;-75
2022/03/07 00:54:54;;;;;;;25.23;13.82;;;;;;;;;;4897874;29;20051;-70
2022/03/07 00:57:20;;;;;;;23.17;14.02;;;;;;;;;;4897783;29;20437;-75
2022/03/07 00:59:46;;;;;;;22.33;12.77;;;;;;;;;;4897457;29;20048;-73
2022/03/07 01:02:12;;;;;;;20.80;12.30;;;;;;;;;;4894856;29;20040;-73
2022/03/07 01:04:38;;;;;;;15.50;10.73;;;;;;;;;;4899008;29;20036;-73
2022/03/07 01:07:04;;;;;;;14.95;10.85;;;;;;;;;;4898913;29;20116;-73
2022/03/07 01:09:30;;;;;;;18.45;10.65;;;;;;;;;;4897453;29;20032;-71
2022/03/07 01:11:56;;;;;;;16.17;11.38;;;;;;;;;;4892819;29;20404;-70
2022/03/07 01:14:22;;;;;;;17.75;11.63;;;;;;;;;;4885799;29;20036;-73
2022/03/07 01:16:47;;;;;;;15.10;10.63;;;;;;;;;;4878812;29;20045;-74
2022/03/07 01:19:13;;;;;;;16.63;11.55;;;;;;;;;;4880094;29;20480;-75
2022/03/07 01:21:39;;;;;;;15.40;10.73;;;;;;;;;;4879855;29;20037;-73
2022/03/07 01:24:07;;;;;;;16.73;10.75;;;;;;;;;;4890199;29;20072;-71
2022/03/07 01:26:33;;;;;;;17.23;10.88;;;;;;;;;;4898668;29;20048;-71
2022/03/07 01:29:00;;;;;;;18.80;11.23;;;;;;;;;;4898040;29;20080;-71
2022/03/07 01:31:26;;;;;;;14.52;10.30;;;;;;;;;;4898463;29;20048;-72
2022/03/07 01:33:51;;;;;;;15.60;10.40;;;;;;;;;;4898266;29;20033;-73
2022/03/07 01:36:17;;;;;;;16.02;10.25;;;;;;;;;;4896799;29;20135;-73
2022/03/07 01:38:43;;;;;;;15.57;10.00;;;;;;;;;;4897180;29;20567;-72
2022/03/07 01:41:09;;;;;;;21.90;10.27;;;;;;;;;;4898294;29;20096;-73
2022/03/07 01:43:34;;;;;;;21.65;10.85;;;;;;;;;;4898164;29;20039;-73
2022/03/07 01:46:00;;;;;;;21.15;11.48;;;;;;;;;;4898037;29;20088;-74
2022/03/07 01:48:26;;;;;;;17.08;11.50;;;;;;;;;;4896904;29;20116;-71
2022/03/07 01:50:54;;;;;;;19.15;11.20;;;;;;;;;;4896938;29;20048;-73
2022/03/07 01:53:21;;;;;;;23.77;10.85;;;;;;;;;;4897901;29;20028;-74
2022/03/07 01:55:48;;;;;;;16.63;11.38;;;;;;;;;;4896566;29;20071;-71
2022/03/07 01:58:14;;;;;;;17.25;11.32;;;;;;;;;;4896481;29;20135;-73
2022/03/07 02:00:40;;;;;;;15.63;10.75;;;;;;;;;;4896696;29;20041;-74
2022/03/07 02:03:07;;;;;;;14.93;9.75;;;;;;;;;;4897812;29;20533;-71
2022/03/07 02:05:36;;;;;;;16.70;10.20;;;;;;;;;;4897804;29;20092;-70
2022/03/07 02:08:11;;;;;;;17.85;10.95;;;;;;;;;;4896189;29;20035;-69
2022/03/07 02:10:47;;;;;;;15.68;10.48;;;;;;;;;;4896014;29;20040;-74
2022/03/07 02:13:16;;;;;;;17.90;10.02;;;;;;;;;;4896331;29;20052;-73
2022/03/07 02:15:54;;;;;;;;;;;;;;;;;;4892021;29;20044;-71
2022/03/07 02:18:22;;;;;;;15.77;10.75;;;;;;;;;;4896263;29;20397;-69
2022/03/07 02:20:56;;;;;;;17.27;12.27;;;;;;;;;;4896246;29;20043;-72
2022/03/07 02:23:21;;;;;;;32.78;12.32;;;;;;;;;;4895943;29;20044;-71
2022/03/07 02:25:48;;;;;;;22.90;12.20;;;;;;;;;;4896181;29;20383;-70
2022/03/07 02:28:16;;;;;;;22.65;12.10;;;;;;;;;;4896287;29;20064;-70
2022/03/07 02:30:42;;;;;;;18.17;11.85;;;;;;;;;;4896162;29;20077;-71
2022/03/07 02:33:13;;;;;;;20.63;13.40;;;;;;;;;;4896121;29;20036;-70
2022/03/07 02:35:39;;;;;;;18.02;12.40;;;;;;;;;;4895858;29;20496;-72
2022/03/07 02:38:16;;;;;;;18.60;12.82;;;;;;;;;;4895860;29;20028;-69
2022/03/07 02:40:46;;;;;;;18.20;12.60;;;;;;;;;;4895119;29;20044;-70
2022/03/07 02:43:13;;;;;;;22.05;13.20;;;;;;;;;;4896212;29;20115;-72
2022/03/07 02:45:41;;;;;;;20.40;13.40;;;;;;;;;;4896015;29;20407;-73
2022/03/07 02:48:06;;;;;;;18.05;12.32;;;;;;;;;;4895402;29;20036;-72
2022/03/07 02:50:33;;;;;;;20.20;11.95;;;;;;;;;;4895839;29;20440;-72
2022/03/07 02:52:59;;;;;;;23.42;12.57;;;;;;;;;;4895443;29;20089;-70
2022/03/07 02:55:25;;;;;;;18.67;11.75;;;;;;;;;;4896886;29;20044;-70
2022/03/07 02:57:51;;;;;;;21.20;12.40;;;;;;;;;;4896770;29;20052;-70
2022/03/07 03:00:17;;;;;;;19.58;12.38;;;;;;;;;;4897183;29;20431;-72
2022/03/07 03:02:43;;;;;;;23.58;12.75;;;;;;;;;;4896607;29;20116;-71
2022/03/07 03:05:09;;;;;;;18.25;11.88;;;;;;;;;;4896684;29;20482;-70
2022/03/07 03:07:35;;;;;;;18.10;11.57;;;;;;;;;;4897089;29;20029;-70
2022/03/07 03:10:01;;;;;;;16.05;12.13;;;;;;;;;;4897044;29;20048;-72
2022/03/07 03:12:27;;;;;;;17.63;11.52;;;;;;;;;;4896921;29;20029;-70
2022/03/07 03:14:53;;;;;;;21.30;13.18;;;;;;;;;;4896975;29;20484;-71
2022/03/07 03:17:20;;;;;;;30.77;14.25;;;;;;;;;;4896955;29;20164;-73
2022/03/07 03:19:46;;;;;;;20.38;13.23;;;;;;;;;;4892656;29;20112;-72
2022/03/07 03:22:11;;;;;;;19.63;13.32;;;;;;;;;;4878142;29;20072;-71
2022/03/07 03:24:37;;;;;;;18.67;13.00;;;;;;;;;;4896686;29;20044;-69
2022/03/07 03:27:06;;;;;;;19.80;12.90;;;;;;;;;;4896680;29;20024;-69
2022/03/07 03:29:32;;;;;;;18.30;13.02;;;;;;;;;;4896457;29;20041;-70
2022/03/07 03:31:58;;;;;;;20.25;12.82;;;;;;;;;;4896778;29;20460;-72
2022/03/07 03:34:25;;;;;;;18.92;13.10;;;;;;;;;;4896346;29;20041;-73
2022/03/07 03:36:51;;;;;;;24.05;14.07;;;;;;;;;;4888326;29;20029;-68
2022/03/07 03:39:17;;;;;;;23.95;13.60;;;;;;;;;;4886657;29;20119;-70
2022/03/07 03:41:44;;;;;;;19.35;12.45;;;;;;;;;;4897111;29;20025;-70
2022/03/07 03:44:10;;;;;;;18.77;12.32;;;;;;;;;;4897639;29;20040;-71
2022/03/07 03:46:37;;;;;;;20.80;11.07;;;;;;;;;;4897674;29;20440;-71
2022/03/07 03:49:03;;;;;;;18.42;12.40;;;;;;;;;;4897760;29;20045;-72
2022/03/07 03:51:29;;;;;;;18.35;11.38;;;;;;;;;;4899663;29;20025;-70
2022/03/07 03:53:55;;;;;;;15.75;10.88;;;;;;;;;;4901187;29;20045;-70
2022/03/07 03:56:21;;;;;;;18.05;10.85;;;;;;;;;;4900498;29;20083;-71
2022/03/07 03:58:47;;;;;;;19.55;10.95;;;;;;;;;;4900612;29;20080;-69
2022/03/07 04:01:13;;;;;;;17.63;11.45;;;;;;;;;;4901397;29;20068;-72
2022/03/07 04:03:39;;;;;;;13.00;9.82;;;;;;;;;;4901266;29;20041;-72
2022/03/07 04:06:06;;;;;;;14.07;9.73;;;;;;;;;;4901096;29;20100;-72
2022/03/07 04:08:35;;;;;;;14.57;10.40;;;;;;;;;;4900941;29;20043;-69
2022/03/07 04:11:03;;;;;;;14.70;10.18;;;;;;;;;;4900853;29;20171;-69
2022/03/07 04:13:29;;;;;;;15.40;10.38;;;;;;;;;;4900593;29;20044;-72
2022/03/07 04:15:55;;;;;;;18.27;10.68;;;;;;;;;;4899853;29;20440;-70
2022/03/07 04:18:20;;;;;;;13.43;10.23;;;;;;;;;;4900625;29;20044;-72
2022/03/07 04:20:46;;;;;;;13.57;9.55;;;;;;;;;;4900604;29;20081;-73
2022/03/07 04:23:13;;;;;;;13.35;9.50;;;;;;;;;;4900726;29;20036;-72
2022/03/07 04:25:38;;;;;;;12.95;9.52;;;;;;;;;;4900741;29;20486;-69
2022/03/07 04:28:05;;;;;;;13.90;9.80;;;;;;;;;;4900622;29;20051;-69
2022/03/07 04:30:30;;;;;;;22.92;11.32;;;;;;;;;;4900383;29;20036;-72
2022/03/07 04:32:56;;;;;;;22.25;11.25;;;;;;;;;;4900681;29;20404;-73
2022/03/07 04:35:22;;;;;;;16.25;10.93;;;;;;;;;;4899847;29;20531;-69
2022/03/07 04:37:48;;;;;;;16.55;10.80;;;;;;;;;;4900382;29;20041;-70
2022/03/07 04:40:16;;;;;;;16.55;9.80;;;;;;;;;;4900536;29;20100;-70
2022/03/07 04:42:43;;;;;;;14.70;10.20;;;;;;;;;;4900143;29;20063;-70
2022/03/07 04:45:11;;;;;;;16.98;10.05;;;;;;;;;;4900082;29;20036;-70
2022/03/07 04:47:37;;;;;;;15.25;9.95;;;;;;;;;;4899886;29;20076;-72
2022/03/07 04:50:04;;;;;;;16.50;10.27;;;;;;;;;;4900070;29;20416;-70
2022/03/07 04:52:30;;;;;;;17.23;10.43;;;;;;;;;;4900116;29;20487;-70
2022/03/07 04:54:55;;;;;;;18.48;11.63;;;;;;;;;;4899942;29;20036;-72
2022/03/07 04:57:21;;;;;;;19.33;11.35;;;;;;;;;;4899811;29;20043;-71
2022/03/07 04:59:47;;;;;;;19.90;12.90;;;;;;;;;;4899659;29;20053;-70
2022/03/07 05:02:15;;;;;;;24.38;14.85;;;;;;;;;;4897896;29;20083;-73
2022/03/07 05:04:41;;;;;;;25.50;14.98;;;;;;;;;;4899810;29;20064;-69
2022/03/07 05:07:07;;;;;;;24.73;14.73;;;;;;;;;;4899849;29;20060;-69
2022/03/07 05:09:34;;;;;;;27.77;14.70;;;;;;;;;;4899912;29;20184;-72
2022/03/07 05:12:00;;;;;;;26.60;14.40;;;;;;;;;;4899834;29;20037;-70
2022/03/07 05:14:26;;;;;;;28.65;13.93;;;;;;;;;;4894552;29;20078;-68
2022/03/07 05:16:52;;;;;;;20.55;12.50;;;;;;;;;;4897311;29;20387;-77
2022/03/07 05:19:18;;;;;;;18.05;12.55;;;;;;;;;;4899812;29;20026;-74
2022/03/07 05:21:44;;;;;;;21.65;13.35;;;;;;;;;;4899754;29;20092;-76
2022/03/07 05:24:10;;;;;;;19.92;13.02;;;;;;;;;;4891775;29;20022;-72
2022/03/07 05:26:36;;;;;;;24.88;14.15;;;;;;;;;;4892675;29;20388;-74
2022/03/07 05:29:03;;;;;;;17.67;12.82;;;;;;;;;;4880641;29;20044;-75
2022/03/07 05:31:29;;;;;;;19.80;13.35;;;;;;;;;;4894605;29;20388;-73
2022/03/07 05:33:55;;;;;;;20.27;13.00;;;;;;;;;;4899611;29;20037;-74
2022/03/07 05:36:22;;;;;;;20.33;14.13;;;;;;;;;;4899256;29;20055;-72
2022/03/07 05:38:47;;;;;;;21.17;12.82;;;;;;;;;;4881394;29;20073;-74
2022/03/07 05:41:14;;;;;;;23.83;13.98;;;;;;;;;;4880372;29;20124;-75
2022/03/07 05:43:40;;;;;;;21.90;13.85;;;;;;;;;;4880071;29;20124;-70
2022/03/07 05:46:06;;;;;;;18.25;12.52;;;;;;;;;;4880125;29;20505;-78
2022/03/07 05:48:33;;;;;;;18.75;12.85;;;;;;;;;;4880843;29;20021;-74
2022/03/07 05:50:58;;;;;;;20.45;13.90;;;;;;;;;;4891255;29;20499;-73
2022/03/07 05:53:24;;;;;;;22.67;13.55;;;;;;;;;;4880362;29;20041;-73
2022/03/07 05:55:51;;;;;;;22.38;14.95;;;;;;;;;;4880223;29;20043;-72
2022/03/07 05:58:17;;;;;;;23.50;14.70;;;;;;;;;;4880164;29;20049;-77
2022/03/07 06:00:44;;;;;;;20.00;13.35;;;;;;;;;;4880297;29;20033;-73
2022/03/07 06:03:11;;;;;;;20.23;12.52;;;;;;;;;;4880642;29;20029;-76
2022/03/07 06:05:37;;;;;;;19.25;12.38;;;;;;;;;;4878839;29;20044;-75
2022/03/07 06:08:04;;;;;;;21.23;12.73;;;;;;;;;;4879970;29;20029;-74
2022/03/07 06:10:30;;;;;;;16.65;11.50;;;;;;;;;;4880271;29;20041;-75
2022/03/07 06:12:56;;;;;;;15.73;11.05;;;;;;;;;;4890237;29;20104;-75
2022/03/07 06:15:21;;;;;;;16.45;10.00;;;;;;;;;;4898730;29;20044;-75
2022/03/07 06:17:52;;;;;;;17.83;9.90;;;;;;;;;;4898839;29;20025;-73
2022/03/07 06:20:20;;;;;;;14.18;9.20;;;;;;;;;;4883143;29;20060;-74
2022/03/07 06:22:45;;;;;;;12.05;8.90;;;;;;;;;;4879823;29;20040;-76
2022/03/07 06:25:12;;;;;;;14.48;9.07;;;;;;;;;;4890240;29;20033;-75
2022/03/07 06:27:38;;;;;;;13.93;8.77;;;;;;;;;;4898419;29;20029;-73
2022/03/07 06:30:04;;;;;;;13.18;9.15;;;;;;;;;;4896120;29;20041;-73
2022/03/07 06:32:30;;;;;;;13.63;9.02;;;;;;;;;;4898023;29;20025;-74
2022/03/07 06:34:56;;;;;;;14.93;9.13;;;;;;;;;;4898034;29;20048;-73
2022/03/07 06:37:23;;;;;;;18.70;9.38;;;;;;;;;;4898062;29;20028;-75
2022/03/07 06:39:49;;;;;;;16.85;9.48;;;;;;;;;;4897805;29;20043;-73
2022/03/07 06:42:15;;;;;;;16.40;9.27;;;;;;;;;;4896625;29;20037;-73
2022/03/07 06:44:40;;;;;;;16.98;10.70;;;;;;;;;;4889376;29;20033;-75
2022/03/07 06:47:07;;;;;;;14.27;10.10;;;;;;;;;;4879091;29;20548;-78
2022/03/07 06:49:33;;;;;;;14.55;10.50;;;;;;;;;;4879239;29;20033;-75
2022/03/07 06:51:59;;;;;;;17.60;10.73;;;;;;;;;;4879050;29;20333;-77
2022/03/07 06:54:25;;;;;;;17.35;12.10;;;;;;;;;;4879147;29;20045;-74
2022/03/07 06:56:51;;;;;;;15.35;10.60;;;;;;;;;;4879254;29;20029;-74
2022/03/07 06:59:17;;;;;;;14.65;10.57;;;;;;;;;;4879033;29;20116;-76
2022/03/07 07:01:42;;;;;;;17.60;10.80;;;;;;;;;;4879102;29;20125;-73
2022/03/07 07:04:08;;;;;;;16.77;10.27;;;;;;;;;;4883340;29;20028;-75
2022/03/07 07:06:34;;;;;;;15.73;9.60;;;;;;;;;;4896726;29;20044;-77
2022/03/07 07:09:00;;;;;;;13.30;9.85;;;;;;;;;;4896410;29;20080;-74
2022/03/07 07:11:26;;;;;;;14.35;9.52;;;;;;;;;;4897124;29;20056;-76
2022/03/07 07:13:51;;;;;;;12.63;9.93;;;;;;;;;;4889789;29;20037;-72
2022/03/07 07:16:17;;;;;;;15.82;10.82;;;;;;;;;;4897214;29;20025;-75
2022/03/07 07:18:43;;;;;;;19.50;12.57;;;;;;;;;;4897541;29;20035;-72
2022/03/07 07:21:09;;;;;;;18.65;12.68;;;;;;;;;;4911061;29;20503;-71
2022/03/07 07:23:36;;;;;;;25.33;12.48;;;;;;;;;;4916535;29;20032;-76
2022/03/07 07:26:03;;;;;;;19.63;12.35;;;;;;;;;;4914535;29;20025;-73
2022/03/07 07:28:29;;;;;;;13.20;9.80;;;;;;;;;;4901114;29;20487;-71
2022/03/07 07:30:55;;;;;;;16.30;10.57;;;;;;;;;;4896492;29;20024;-68
2022/03/07 07:33:21;;;;;;;20.38;11.18;;;;;;;;;;4887897;29;20037;-76
2022/03/07 07:35:46;;;;;;;17.02;11.00;;;;;;;;;;4882134;29;20100;-78
2022/03/07 07:38:13;;;;;;;15.80;10.25;;;;;;;;;;4881845;29;20276;-74
2022/03/07 07:40:39;;;;;;;16.95;10.65;;;;;;;;;;4882047;29;20029;-76
2022/03/07 07:43:05;;;;;;;12.75;10.07;;;;;;;;;;4882370;29;20037;-74
2022/03/07 07:45:32;;;;;;;17.90;11.77;;;;;;;;;;4882550;29;20052;-75
2022/03/07 07:47:59;;;;;;;16.70;11.75;;;;;;;;;;4880977;29;20049;-73
2022/03/07 07:50:26;;;;;;;14.98;10.77;;;;;;;;;;4882344;29;20088;-77
2022/03/07 07:52:51;;;;;;;13.73;10.23;;;;;;;;;;4881611;29;20122;-74
2022/03/07 07:55:17;;;;;;;13.95;9.40;;;;;;;;;;4881817;29;20021;-76
2022/03/07 07:57:43;;;;;;;13.32;9.25;;;;;;;;;;4882038;29;20062;-76
2022/03/07 08:00:11;;;;;;;17.88;10.82;;;;;;;;;;4882269;29;20405;-76
2022/03/07 08:02:39;;;;;;;15.15;9.05;;;;;;;;;;4882444;29;20349;-70
2022/03/07 08:05:05;;;;;;;13.48;6.97;;;;;;;;;;4882027;29;20029;-74
2022/03/07 08:07:31;;;;;;;15.05;8.35;;;;;;;;;;4890915;29;20043;-77
2022/03/07 08:09:57;;;;;;;15.40;9.50;;;;;;;;;;4900421;29;20447;-75
2022/03/07 08:12:23;;;;;;;14.07;8.52;;;;;;;;;;4900712;29;20044;-75
2022/03/07 08:14:49;;;;;;;15.20;10.63;;;;;;;;;;4900245;29;20108;-76
2022/03/07 08:17:15;;;;;;;18.75;10.45;;;;;;;;;;4900180;29;20115;-70
2022/03/07 08:19:41;;;;;;;13.52;9.05;;;;;;;;;;4900376;29;20071;-72
2022/03/07 08:22:07;;;;;;;12.85;9.32;;;;;;;;;;4900243;29;20487;-76
2022/03/07 08:24:32;;;;;;;15.40;10.13;;;;;;;;;;4900276;29;20479;-70
2022/03/07 08:26:58;;;;;;;13.35;9.05;;;;;;;;;;4900358;29;20492;-72
2022/03/07 08:29:25;;;;;;;12.32;8.60;;;;;;;;;;4899736;29;20028;-76
2022/03/07 08:31:51;;;;;;;14.98;9.60;;;;;;;;;;4899862;29;20037;-77
2022/03/07 08:34:17;;;;;;;13.90;9.63;;;;;;;;;;4899700;29;20032;-71
2022/03/07 08:36:43;;;;;;;12.95;9.20;;;;;;;;;;4899610;29;20055;-75
2022/03/07 08:39:08;;;;;;;13.20;9.52;;;;;;;;;;4898287;29;20024;-74
2022/03/07 08:41:34;;;;;;;14.10;9.48;;;;;;;;;;4899105;29;20051;-72
2022/03/07 08:44:00;;;;;;;16.58;8.75;;;;;;;;;;4899494;29;20108;-74
2022/03/07 08:46:26;;;;;;;12.95;8.75;;;;;;;;;;4899822;29;20093;-75
2022/03/07 08:48:52;;;;;;;11.18;8.43;;;;;;;;;;4899819;29;20033;-71
2022/03/07 08:51:18;;;;;;;14.63;9.73;;;;;;;;;;4899889;29;20540;-75
2022/03/07 08:53:44;;;;;;;15.23;9.30;;;;;;;;;;4898554;29;20028;-77
2022/03/07 08:56:11;;;;;;;15.25;8.63;;;;;;;;;;4898626;29;20392;-77
2022/03/07 08:58:37;;;;;;;12.68;9.00;;;;;;;;;;4899678;29;20045;-73
2022/03/07 09:01:03;;;;;;;15.30;8.98;;;;;;;;;;4899420;29;20041;-71
2022/03/07 09:03:29;;;;;;;12.52;10.35;;;;;;;;;;4898051;29;20051;-76
2022/03/07 09:05:55;;;;;;;13.93;9.18;;;;;;;;;;4899091;29;20040;-76
2022/03/07 09:08:20;;;;;;;11.25;8.35;;;;;;;;;;4899572;29;20431;-75
2022/03/07 09:10:46;;;;;;;11.52;8.88;;;;;;;;;;4899548;29;20454;-72
2022/03/07 09:13:12;;;;;;;12.48;8.85;;;;;;;;;;4899279;29;20033;-72
2022/03/07 09:15:39;;;;;;;13.15;9.63;;;;;;;;;;4898882;29;20112;-75
2022/03/07 09:18:05;;;;;;;12.32;7.90;;;;;;;;;;4898668;29;20348;-71
2022/03/07 09:20:31;;;;;;;11.35;7.57;;;;;;;;;;4899030;29;20041;-75
2022/03/07 09:22:57;;;;;;;13.80;9.40;;;;;;;;;;4899239;29;20387;-73
2022/03/07 09:25:23;;;;;;;11.18;8.65;;;;;;;;;;4898707;29;20032;-71
2022/03/07 09:27:50;;;;;;;12.15;8.68;;;;;;;;;;4899229;29;20451;-73
2022/03/07 09:30:15;;;;;;;12.20;8.45;;;;;;;;;;4898678;29;20060;-74
2022/03/07 09:32:42;;;;;;;13.88;8.95;;;;;;;;;;4898954;29;20029;-72
2022/03/07 09:35:09;;;;;;;12.90;7.93;;;;;;;;;;4899057;29;20064;-74
2022/03/07 09:37:34;;;;;;;12.38;7.55;;;;;;;;;;4899762;29;20432;-74
2022/03/07 09:40:00;;;;;;;10.40;7.28;;;;;;;;;;4898662;29;20032;-73
2022/03/07 09:42:27;;;;;;;12.13;7.70;;;;;;;;;;4898637;29;20058;-77
2022/03/07 09:44:54;;;;;;;11.50;7.60;;;;;;;;;;4882002;29;20038;-71
2022/03/07 09:47:22;;;;;;;12.90;8.00;;;;;;;;;;4898796;29;20044;-72
2022/03/07 09:49:50;;;;;;;13.00;7.95;;;;;;;;;;4893683;29;20440;-75
2022/03/07 09:52:16;;;;;;;10.38;7.75;;;;;;;;;;4897594;29;20043;-78
2022/03/07 09:54:42;;;;;;;12.77;8.02;;;;;;;;;;4896896;29;20041;-75
2022/03/07 09:57:08;;;;;;;11.55;8.88;;;;;;;;;;4896994;29;20024;-77
2022/03/07 09:59:35;;;;;;;14.57;9.18;;;;;;;;;;4896686;29;20104;-76
2022/03/07 10:02:04;;;;;;;16.83;9.25;;;;;;;;;;4897168;29;20480;-75
2022/03/07 10:04:31;;;;;;;13.65;9.20;;;;;;;;;;4896876;29;20037;-76
2022/03/07 10:07:00;;;;;;;12.07;9.07;;;;;;;;;;4896761;29;20052;-77
2022/03/07 10:09:26;;;;;;;12.55;8.98;;;;;;;;;;4897227;29;20388;-77
2022/03/07 10:12:00;;;;;;;15.45;9.95;;;;;;;;;;4896345;29;20035;-76
2022/03/07 10:14:45;;;;;;;14.02;9.18;;;;;;;;;;4895267;29;20048;-76
2022/03/07 10:17:31;;;;;;;12.82;7.68;;;;;;;;;;4897217;29;20492;-76
2022/03/07 10:20:03;;;;;;;14.25;8.57;;;;;;;;;;4897313;29;20032;-74
2022/03/07 10:22:29;;;;;;;11.73;7.95;;;;;;;;;;4897146;29;20119;-74
2022/03/07 10:25:03;;;;;;;12.38;8.95;;;;;;;;;;4897136;29;20033;-75
2022/03/07 10:27:33;;;;;;;10.50;7.15;;;;;;;;;;4895917;29;20487;-77
2022/03/07 10:29:59;;;;;;;11.38;7.03;;;;;;;;;;4895287;29;20099;-75
2022/03/07 10:32:25;;;;;;;10.02;7.18;;;;;;;;;;4896915;29;20387;-77
2022/03/07 10:34:50;;;;;;;10.82;7.07;;;;;;;;;;4896806;29;20028;-73
2022/03/07 10:37:16;;;;;;;9.38;6.93;;;;;;;;;;4896708;29;20067;-75
2022/03/07 10:39:48;;;;;;;11.43;8.63;;;;;;;;;;4896440;29;20365;-75
2022/03/07 10:42:18;;;;;;;10.60;7.10;;;;;;;;;;4896169;29;20037;-76
2022/03/07 10:44:45;;;;;;;11.15;6.57;;;;;;;;;;4896361;29;20041;-75
2022/03/07 10:47:17;;;;;;;13.93;6.80;;;;;;;;;;4893648;29;20492;-75
2022/03/07 10:49:47;;;;;;;9.90;7.43;;;;;;;;;;4896716;29;20527;-75
2022/03/07 10:52:13;;;;;;;10.57;7.32;;;;;;;;;;4895429;29;20048;-74
2022/03/07 10:54:39;;;;;;;13.27;8.23;;;;;;;;;;4896148;29;20203;-76
2022/03/07 10:57:08;;;;;;;13.35;8.57;;;;;;;;;;4896351;29;20032;-76
2022/03/07 10:59:35;;;;;;;11.20;6.88;;;;;;;;;;4896143;29;20081;-75
2022/03/07 11:02:05;;;;;;;18.08;9.65;;;;;;;;;;4895214;29;20041;-74
2022/03/07 11:04:31;;;;;;;12.90;9.02;;;;;;;;;;4894870;29;20495;-76
2022/03/07 11:06:57;;;;;;;16.85;9.63;;;;;;;;;;4896047;29;20116;-76
2022/03/07 11:09:22;;;;;;;15.73;9.20;;;;;;;;;;4896625;29;20056;-77
2022/03/07 11:11:50;;;;;;;10.85;8.45;;;;;;;;;;4896374;29;20048;-77
2022/03/07 11:14:17;;;;;;;11.32;7.93;;;;;;;;;;4895521;29;20040;-71
2022/03/07 11:16:51;;;;;;;14.93;7.75;;;;;;;;;;4895556;29;20536;-73
2022/03/07 11:19:18;;;;;;;12.20;7.13;;;;;;;;;;4895844;29;20040;-72
2022/03/07 11:21:45;;;;;;;10.55;6.05;;;;;;;;;;4896130;29;20043;-72
2022/03/07 11:24:12;;;;;;;9.60;7.22;;;;;;;;;;4896188;29;20499;-72
2022/03/07 11:26:42;;;;;;;8.00;6.18;;;;;;;;;;4879596;29;20040;-73
2022/03/07 11:29:09;;;;;;;12.25;6.55;;;;;;;;;;4896343;29;20096;-70
2022/03/07 11:31:35;;;;;;;11.32;6.03;;;;;;;;;;4895721;29;20059;-73
2022/03/07 11:34:07;;;;;;;7.85;5.40;;;;;;;;;;4896025;29;20464;-72
2022/03/07 11:36:41;;;;;;;10.55;6.35;;;;;;;;;;4896129;29;20136;-75
2022/03/07 11:39:08;;;;;;;10.70;6.28;;;;;;;;;;4896516;29;20531;-73
2022/03/07 11:41:38;;;;;;;11.38;6.85;;;;;;;;;;4895637;29;20032;-72
2022/03/07 11:44:14;;;;;;;10.23;6.80;;;;;;;;;;4896180;29;20064;-76
2022/03/07 11:46:44;;;;;;;9.32;6.90;;;;;;;;;;4896234;29;20044;-75
2022/03/07 11:49:22;;;;;;;14.68;7.20;;;;;;;;;;4896306;29;20072;-77
2022/03/07 11:51:57;;;;;;;8.82;6.75;;;;;;;;;;4896136;29;20529;-73
2022/03/07 11:54:23;;;;;;;9.52;6.70;;;;;;;;;;4894242;29;20044;-72
2022/03/07 11:56:48;;;;;;;8.85;7.00;;;;;;;;;;4895608;29;20029;-69
2022/03/07 11:59:15;;;;;;;8.00;5.95;;;;;;;;;;4894850;29;20049;-74
2022/03/07 12:01:53;;;;;;;9.00;6.07;;;;;;;;;;4892247;29;20399;-73
2022/03/07 12:04:19;;;;;;;7.72;5.68;;;;;;;;;;4895882;29;20107;-71
2022/03/07 12:06:53;;;;;;;9.25;5.70;;;;;;;;;;4895674;29;20527;-70
2022/03/07 12:09:27;;;;;;;13.23;6.28;;;;;;;;;;4894429;29;20036;-72
2022/03/07 12:12:10;;;;;;;8.23;5.60;;;;;;;;;;4896875;29;20426;-74
2022/03/07 12:14:44;;;;;;;7.63;5.13;;;;;;;;;;4899803;29;20044;-71
2022/03/07 12:17:19;;;;;;;7.00;5.50;;;;;;;;;;4894527;29;20032;-72
2022/03/07 12:19:53;;;;;;;9.45;6.30;;;;;;;;;;4899479;29;20064;-72
2022/03/07 12:22:24;;;;;;;8.40;5.95;;;;;;;;;;4897439;29;20040;-70
2022/03/07 12:24:52;;;;;;;8.57;6.65;;;;;;;;;;4898395;29;20041;-70
2022/03/07 12:27:18;;;;;;;13.90;6.85;;;;;;;;;;4898811;29;20087;-70
2022/03/07 12:29:44;;;;;;;11.32;7.22;;;;;;;;;;4899187;29;20503;-75
2022/03/07 12:32:11;;;;;;;10.65;7.28;;;;;;;;;;4898720;29;20074;-74
2022/03/07 12:34:40;;;;;;;9.68;6.72;;;;;;;;;;4898641;29;20064;-71
2022/03/07 12:37:12;;;;;;;9.13;6.85;;;;;;;;;;4898480;29;20036;-75
2022/03/07 12:39:57;;;;;;;10.77;6.35;;;;;;;;;;4897991;29;20169;-73
2022/03/07 12:42:28;;;;;;;8.18;6.50;;;;;;;;;;4898899;29;20039;-72
2022/03/07 12:44:59;;;;;;;11.85;7.03;;;;;;;;;;4898386;29;20448;-75
2022/03/07 12:47:38;;;;;;;9.07;6.70;;;;;;;;;;4898458;29;20033;-74
2022/03/07 12:50:07;;;;;;;10.77;7.10;;;;;;;;;;4897523;29;20037;-74
2022/03/07 12:52:35;;;;;;;8.93;6.55;;;;;;;;;;4898236;29;20027;-75
2022/03/07 12:55:06;;;;;;;35.17;18.42;;;;;;;;;;4898324;29;20088;-75
2022/03/07 12:57:32;;;;;;;12.65;9.25;;;;;;;;;;4898188;29;20484;-69
2022/03/07 13:00:01;;;;;;;21.25;19.02;;;;;;;;;;4897623;29;20028;-75
2022/03/07 13:02:37;;;;;;;9.82;6.90;;;;;;;;;;4897786;29;20115;-75
2022/03/07 13:05:08;;;;;;;8.98;6.40;;;;;;;;;;4916955;29;20134;-71
2022/03/07 13:07:34;;;;;;;7.95;6.30;;;;;;;;;;4901468;29;20039;-71
2022/03/07 13:10:09;;;;;;;8.75;6.20;;;;;;;;;;4895312;29;20108;-71
2022/03/07 13:12:36;;;;;;;7.53;5.97;;;;;;;;;;4895850;29;20077;-71
2022/03/07 13:15:04;;;;;;;10.07;6.05;;;;;;;;;;4892832;29;20024;-73
2022/03/07 13:17:30;;;;;;;7.40;5.82;;;;;;;;;;4888299;29;20464;-73
2022/03/07 13:19:56;;;;;;;8.43;6.15;;;;;;;;;;4882849;29;20044;-70
2022/03/07 13:22:23;;;;;;;7.18;5.40;;;;;;;;;;4888485;29;20044;-72
2022/03/07 13:24:50;;;;;;;7.68;5.93;;;;;;;;;;4895100;29;20116;-74
2022/03/07 13:27:17;;;;;;;11.20;6.93;;;;;;;;;;4895716;29;20040;-76
2022/03/07 13:29:45;;;;;;;8.98;6.88;;;;;;;;;;4885960;29;20033;-72
2022/03/07 13:32:13;;;;;;;12.70;6.90;;;;;;;;;;4885130;29;20081;-70
2022/03/07 13:34:46;;;;;;;8.77;5.93;;;;;;;;;;4898994;29;20025;-71
2022/03/07 13:37:29;;;;;;;9.45;6.15;;;;;;;;;;4898997;29;20084;-71
2022/03/07 13:40:10;;;;;;;9.60;6.65;;;;;;;;;;4898915;29;20047;-70
2022/03/07 13:42:41;;;;;;;9.50;6.30;;;;;;;;;;4898793;29;20073;-76
2022/03/07 13:45:17;;;;;;;9.90;6.50;;;;;;;;;;4898920;29;20076;-72
2022/03/07 13:47:45;;;;;;;12.45;7.10;;;;;;;;;;4898938;29;20028;-71
2022/03/07 13:50:23;;;;;;;11.23;6.45;;;;;;;;;;4898723;29;20029;-76
2022/03/07 13:53:10;;;;;;;10.35;6.95;;;;;;;;;;4897411;29;20076;-73
2022/03/07 13:55:45;;;;;;;10.20;6.13;;;;;;;;;;4898687;29;20048;-68
2022/03/07 13:58:14;;;;;;;9.45;6.18;;;;;;;;;;4892686;29;20056;-70
2022/03/07 14:00:40;;;;;;;10.15;6.90;;;;;;;;;;4897038;29;20041;-69
2022/03/07 14:03:08;;;;;;;9.05;6.97;;;;;;;;;;4897001;29;20040;-67
2022/03/07 14:05:51;;;;;;;11.70;7.00;;;;;;;;;;4898713;29;20028;-71
2022/03/07 14:08:39;;;;;;;13.32;9.23;;;;;;;;;;4898820;29;20037;-68
2022/03/07 14:11:09;;;;;;;9.25;6.65;;;;;;;;;;4898796;29;20380;-74
2022/03/07 14:13:44;;;;;;;9.05;6.45;;;;;;;;;;4898113;29;20076;-74
2022/03/07 14:16:11;;;;;;;8.30;6.13;;;;;;;;;;4897828;29;20177;-69
2022/03/07 14:18:37;;;;;;;10.60;6.72;;;;;;;;;;4898243;29;20029;-74
2022/03/07 14:21:03;;;;;;;12.13;7.32;;;;;;;;;;4897036;29;20033;-71
2022/03/07 14:23:29;;;;;;;10.77;7.07;;;;;;;;;;4893471;29;20037;-73
2022/03/07 14:25:55;;;;;;;8.80;6.60;;;;;;;;;;4896975;29;20056;-75
2022/03/07 14:28:22;;;;;;;9.55;6.57;;;;;;;;;;4897813;29;20034;-73